Marshallville, Georgia
Current Conditions -  °F | °C
As of 7:55 PM on Monday 22 Dec 2014 (Local Time) from KPXE Reporting Station
Light Rain Light Rain  
Wind Chill: 51°   Ceiling: 200
Heat Index: 51°   Visibility: 1mi
Dew Point: 49°   Wind: 8mph
Humidity: 92%   Direction: 60°ENE
Pressure: 29.95"   Gusts: NA
Location:  32.46°N, 83.94°W
Report Text: KPXE 230055Z AUTO 06007KT 1SM -RA OVC002 11/09 A2995 RMK AO2 T01050092
Loading
Personal Weather Stations






























Interactive Weather Map New forecast layout! Learn more

10-Day Weather Forecast

Advertisements
Track Severe Weather on mobile